sensor_id;sensor_type;location;lat;lon;timestamp;pressure;altitude;pressure_sealevel;temperature;humidity
17855;BME280;9053;53.358;6.382;2023-02-28T00:00:44;103202.22;;;6.38;100.00
17855;BME280;9053;53.358;6.382;2023-02-28T00:03:16;103198.03;;;6.40;100.00
17855;BME280;9053;53.358;6.382;2023-02-28T00:05:46;103203.38;;;6.42;100.00
17855;BME280;9053;53.358;6.382;2023-02-28T00:08:16;103201.03;;;6.45;100.00
17855;BME280;9053;53.358;6.382;2023-02-28T00:10:46;103201.97;;;6.45;100.00
17855;BME280;9053;53.358;6.382;2023-02-28T00:13:16;103197.91;;;6.49;100.00
17855;BME280;9053;53.358;6.382;2023-02-28T00:15:46;103199.09;;;6.53;100.00
17855;BME280;9053;53.358;6.382;2023-02-28T00:18:18;103203.06;;;6.58;100.00
17855;BME280;9053;53.358;6.382;2023-02-28T00:20:48;103209.19;;;6.58;100.00
17855;BME280;9053;53.358;6.382;2023-02-28T00:23:18;103201.47;;;6.60;100.00
17855;BME280;9053;53.358;6.382;2023-02-28T00:25:48;103210.38;;;6.62;100.00
17855;BME280;9053;53.358;6.382;2023-02-28T00:28:20;103206.19;;;6.64;100.00
17855;BME280;9053;53.358;6.382;2023-02-28T00:30:50;103204.63;;;6.66;100.00
17855;BME280;9053;53.358;6.382;2023-02-28T00:33:22;103207.25;;;6.66;100.00
17855;BME280;9053;53.358;6.382;2023-02-28T00:35:52;103215.09;;;6.66;100.00
17855;BME280;9053;53.358;6.382;2023-02-28T00:38:30;103217.72;;;6.66;100.00
17855;BME280;9053;53.358;6.382;2023-02-28T00:41:00;103205.41;;;6.65;100.00
17855;BME280;9053;53.358;6.382;2023-02-28T00:43:33;103199.41;;;6.66;100.00
17855;BME280;9053;53.358;6.382;2023-02-28T00:46:04;103197.84;;;6.68;100.00
17855;BME280;9053;53.358;6.382;2023-02-28T00:48:37;103190.91;;;6.68;100.00
17855;BME280;9053;53.358;6.382;2023-02-28T00:51:06;103193.78;;;6.71;100.00
17855;BME280;9053;53.358;6.382;2023-02-28T00:53:36;103193.78;;;6.71;100.00
17855;BME280;9053;53.358;6.382;2023-02-28T00:56:07;103193.94;;;6.73;100.00
17855;BME280;9053;53.358;6.382;2023-02-28T00:58:36;103187.09;;;6.75;100.00
17855;BME280;9053;53.358;6.382;2023-02-28T01:01:06;103186.44;;;6.78;100.00
17855;BME280;9053;53.358;6.382;2023-02-28T01:03:39;103180.47;;;6.79;100.00
17855;BME280;9053;53.358;6.382;2023-02-28T01:06:09;103171.97;;;6.81;100.00
17855;BME280;9053;53.358;6.382;2023-02-28T01:08:38;103178.25;;;6.83;100.00
17855;BME280;9053;53.358;6.382;2023-02-28T01:11:09;103173.91;;;6.84;100.00
17855;BME280;9053;53.358;6.382;2023-02-28T01:13:41;103180.88;;;6.83;100.00
17855;BME280;9053;53.358;6.382;2023-02-28T01:16:11;103178.34;;;6.85;100.00
17855;BME280;9053;53.358;6.382;2023-02-28T01:18:44;103171.41;;;6.85;100.00
17855;BME280;9053;53.358;6.382;2023-02-28T01:21:15;103174.97;;;6.86;100.00
17855;BME280;9053;53.358;6.382;2023-02-28T01:23:46;103172.38;;;6.86;100.00
17855;BME280;9053;53.358;6.382;2023-02-28T01:26:18;103173.28;;;6.86;100.00
17855;BME280;9053;53.358;6.382;2023-02-28T01:28:48;103175.88;;;6.86;100.00
17855;BME280;9053;53.358;6.382;2023-02-28T01:31:19;103182.94;;;6.87;100.00
17855;BME280;9053;53.358;6.382;2023-02-28T01:33:52;103182.03;;;6.87;100.00
17855;BME280;9053;53.358;6.382;2023-02-28T01:36:24;103176.53;;;6.84;100.00
17855;BME280;9053;53.358;6.382;2023-02-28T01:38:54;103181.78;;;6.84;100.00
17855;BME280;9053;53.358;6.382;2023-02-28T01:41:25;103171.16;;;6.82;100.00
17855;BME280;9053;53.358;6.382;2023-02-28T01:44:00;103170.09;;;6.80;100.00
17855;BME280;9053;53.358;6.382;2023-02-28T01:46:35;103170.91;;;6.79;100.00
17855;BME280;9053;53.358;6.382;2023-02-28T01:49:11;103163.06;;;6.79;100.00
17855;BME280;9053;53.358;6.382;2023-02-28T01:51:45;103157.81;;;6.79;100.00
17855;BME280;9053;53.358;6.382;2023-02-28T01:54:21;103160.44;;;6.79;100.00
17855;BME280;9053;53.358;6.382;2023-02-28T01:56:54;103157.81;;;6.79;100.00
17855;BME280;9053;53.358;6.382;2023-02-28T01:59:29;103155.06;;;6.78;100.00
17855;BME280;9053;53.358;6.382;2023-02-28T02:02:01;103162.00;;;6.77;100.00
17855;BME280;9053;53.358;6.382;2023-02-28T02:04:38;103155.06;;;6.78;100.00
17855;BME280;9053;53.358;6.382;2023-02-28T02:07:09;103156.13;;;6.80;100.00
17855;BME280;9053;53.358;6.382;2023-02-28T02:09:40;103146.56;;;6.80;100.00
17855;BME280;9053;53.358;6.382;2023-02-28T02:12:20;103146.72;;;6.82;100.00
17855;BME280;9053;53.358;6.382;2023-02-28T02:15:02;103137.31;;;6.84;100.00
17855;BME280;9053;53.358;6.382;2023-02-28T02:17:39;103133.13;;;6.86;100.00
17855;BME280;9053;53.358;6.382;2023-02-28T02:20:41;103125.53;;;6.89;100.00
17855;BME280;9053;53.358;6.382;2023-02-28T02:26:52;103132.19;;;6.85;100.00
17855;BME280;9053;53.358;6.382;2023-02-28T02:33:02;103129.47;;;6.84;100.00
17855;BME280;9053;53.358;6.382;2023-02-28T02:35:40;103119.66;;;6.81;100.00
17855;BME280;9053;53.358;6.382;2023-02-28T02:38:18;103127.34;;;6.80;100.00
17855;BME280;9053;53.358;6.382;2023-02-28T02:40:57;103128.25;;;6.80;100.00
17855;BME280;9053;53.358;6.382;2023-02-28T02:43:32;103131.66;;;6.79;100.00
17855;BME280;9053;53.358;6.382;2023-02-28T02:46:07;103131.81;;;6.81;100.00
17855;BME280;9053;53.358;6.382;2023-02-28T02:48:40;103127.34;;;6.80;100.00
17855;BME280;9053;53.358;6.382;2023-02-28T02:51:15;103122.38;;;6.83;100.00
17855;BME280;9053;53.358;6.382;2023-02-28T02:53:49;103116.47;;;6.85;100.00
17855;BME280;9053;53.358;6.382;2023-02-28T02:56:25;103128.16;;;6.89;100.00
17855;BME280;9053;53.358;6.382;2023-02-28T02:59:00;103122.00;;;6.88;100.00
17855;BME280;9053;53.358;6.382;2023-02-28T03:01:32;103109.97;;;6.90;100.00
17855;BME280;9053;53.358;6.382;2023-02-28T03:04:06;103102.38;;;6.93;100.00
17855;BME280;9053;53.358;6.382;2023-02-28T03:06:39;103113.91;;;6.96;100.00
17855;BME280;9053;53.358;6.382;2023-02-28T03:09:09;103111.38;;;6.97;100.00
17855;BME280;9053;53.358;6.382;2023-02-28T03:11:40;103108.78;;;6.97;100.00
17855;BME280;9053;53.358;6.382;2023-02-28T03:14:26;103122.09;;;7.00;100.00
17855;BME280;9053;53.358;6.382;2023-02-28T03:17:12;103124.63;;;6.99;100.00
17855;BME280;9053;53.358;6.382;2023-02-28T03:19:52;103127.09;;;6.97;100.00
17855;BME280;9053;53.358;6.382;2023-02-28T03:22:37;103124.34;;;6.96;100.00
17855;BME280;9053;53.358;6.382;2023-02-28T03:25:15;103124.88;;;6.91;100.00
17855;BME280;9053;53.358;6.382;2023-02-28T03:27:52;103117.03;;;6.91;100.00
17855;BME280;9053;53.358;6.382;2023-02-28T03:30:27;103111.94;;;6.93;100.00
17855;BME280;9053;53.358;6.382;2023-02-28T03:33:03;103118.19;;;6.95;100.00
17855;BME280;9053;53.358;6.382;2023-02-28T03:35:37;103115.84;;;6.98;100.00
17855;BME280;9053;53.358;6.382;2023-02-28T03:38:14;103114.81;;;6.96;100.00
17855;BME280;9053;53.358;6.382;2023-02-28T03:40:48;103113.91;;;6.96;100.00
17855;BME280;9053;53.358;6.382;2023-02-28T03:43:22;103117.28;;;6.94;100.00
17855;BME280;9053;53.358;6.382;2023-02-28T03:45:54;103108.38;;;6.92;100.00
17855;BME280;9053;53.358;6.382;2023-02-28T03:48:30;103112.84;;;6.93;100.00
17855;BME280;9053;53.358;6.382;2023-02-28T03:51:02;103112.69;;;6.92;100.00
17855;BME280;9053;53.358;6.382;2023-02-28T03:53:38;103117.03;;;6.91;100.00
17855;BME280;9053;53.358;6.382;2023-02-28T03:56:14;103117.81;;;6.90;100.00
17855;BME280;9053;53.358;6.382;2023-02-28T03:58:51;103112.31;;;6.87;100.00
17855;BME280;9053;53.358;6.382;2023-02-28T04:01:25;103123.31;;;6.83;100.00
17855;BME280;9053;53.358;6.382;2023-02-28T04:03:58;103125.63;;;6.80;100.00
17855;BME280;9053;53.358;6.382;2023-02-28T04:06:31;103122.13;;;6.80;100.00
17855;BME280;9053;53.358;6.382;2023-02-28T04:09:05;103118.44;;;6.78;100.00
17855;BME280;9053;53.358;6.382;2023-02-28T04:11:36;103123.56;;;6.76;100.00
17855;BME280;9053;53.358;6.382;2023-02-28T04:14:08;103122.50;;;6.74;100.00
17855;BME280;9053;53.358;6.382;2023-02-28T04:16:40;103116.63;;;6.77;100.00
17855;BME280;9053;53.358;6.382;2023-02-28T04:19:11;103118.44;;;6.78;100.00
17855;BME280;9053;53.358;6.382;2023-02-28T04:21:43;103119.50;;;6.80;100.00
17855;BME280;9053;53.358;6.382;2023-02-28T04:24:18;103126.44;;;6.79;100.00
17855;BME280;9053;53.358;6.382;2023-02-28T04:26:50;103126.69;;;6.82;100.00
17855;BME280;9053;53.358;6.382;2023-02-28T04:29:22;103121.72;;;6.85;100.00
17855;BME280;9053;53.358;6.382;2023-02-28T04:31:52;103126.44;;;6.89;100.00
17855;BME280;9053;53.358;6.382;2023-02-28T04:34:25;103123.16;;;6.92;100.00
17855;BME280;9053;53.358;6.382;2023-02-28T04:36:55;103124.34;;;6.96;100.00
17855;BME280;9053;53.358;6.382;2023-02-28T04:39:45;103125.53;;;6.99;100.00
17855;BME280;9053;53.358;6.382;2023-02-28T04:42:15;103129.19;;;7.01;100.00
17855;BME280;9053;53.358;6.382;2023-02-28T04:44:45;103131.00;;;7.02;100.00
17855;BME280;9053;53.358;6.382;2023-02-28T04:47:15;103123.31;;;7.04;100.00
17855;BME280;9053;53.358;6.382;2023-02-28T04:49:44;103121.72;;;7.06;100.00
17855;BME280;9053;53.358;6.382;2023-02-28T04:52:14;103126.16;;;7.07;100.00
17855;BME280;9053;53.358;6.382;2023-02-28T04:54:47;103128.78;;;7.07;100.00
17855;BME280;9053;53.358;6.382;2023-02-28T04:57:17;103136.78;;;7.08;100.00
17855;BME280;9053;53.358;6.382;2023-02-28T04:59:47;103130.50;;;7.06;100.00
17855;BME280;9053;53.358;6.382;2023-02-28T05:02:17;103130.50;;;7.06;100.00
17855;BME280;9053;53.358;6.382;2023-02-28T05:04:48;103132.72;;;7.02;100.00
17855;BME280;9053;53.358;6.382;2023-02-28T05:07:17;103135.06;;;6.99;100.00
17855;BME280;9053;53.358;6.382;2023-02-28T05:09:50;103140.97;;;6.96;100.00
17855;BME280;9053;53.358;6.382;2023-02-28T05:12:20;103135.59;;;6.94;100.00
17855;BME280;9053;53.358;6.382;2023-02-28T05:14:49;103133.88;;;6.95;100.00
17855;BME280;9053;53.358;6.382;2023-02-28T05:17:19;103129.59;;;6.96;100.00
17855;BME280;9053;53.358;6.382;2023-02-28T05:19:49;103128.13;;;6.99;100.00
17855;BME280;9053;53.358;6.382;2023-02-28T05:22:22;103138.75;;;7.01;100.00
17855;BME280;9053;53.358;6.382;2023-02-28T05:24:55;103132.84;;;7.03;100.00
17855;BME280;9053;53.358;6.382;2023-02-28T05:27:25;103145.13;;;7.04;100.00
17855;BME280;9053;53.358;6.382;2023-02-28T05:29:55;103137.16;;;7.03;100.00
17855;BME280;9053;53.358;6.382;2023-02-28T05:32:25;103139.50;;;7.00;100.00
17855;BME280;9053;53.358;6.382;2023-02-28T05:34:55;103135.06;;;6.99;100.00
17855;BME280;9053;53.358;6.382;2023-02-28T05:37:25;103135.59;;;6.94;100.00
17855;BME280;9053;53.358;6.382;2023-02-28T05:39:57;103138.88;;;6.92;100.00
17855;BME280;9053;53.358;6.382;2023-02-28T05:42:27;103141.22;;;6.89;100.00
17855;BME280;9053;53.358;6.382;2023-02-28T05:44:57;103132.19;;;6.85;100.00
17855;BME280;9053;53.358;6.382;2023-02-28T05:47:27;103132.72;;;6.81;100.00
17855;BME280;9053;53.358;6.382;2023-02-28T05:49:57;103130.50;;;6.76;100.00
17855;BME280;9053;53.358;6.382;2023-02-28T05:52:27;103140.56;;;6.71;100.00
17855;BME280;9053;53.358;6.382;2023-02-28T05:54:59;103137.69;;;6.68;100.00
17855;BME280;9053;53.358;6.382;2023-02-28T05:57:29;103133.88;;;6.64;100.00
17855;BME280;9053;53.358;6.382;2023-02-28T05:59:59;103137.16;;;6.62;100.00
17855;BME280;9053;53.358;6.382;2023-02-28T06:02:30;103140.56;;;6.61;100.00
17855;BME280;9053;53.358;6.382;2023-02-28T06:05:00;103140.31;;;6.58;100.00
17855;BME280;9053;53.358;6.382;2023-02-28T06:07:29;103153.22;;;6.56;100.00
17855;BME280;9053;53.358;6.382;2023-02-28T06:10:02;103146.19;;;6.55;100.00
17855;BME280;9053;53.358;6.382;2023-02-28T06:12:32;103155.44;;;6.52;100.00
17855;BME280;9053;53.358;6.382;2023-02-28T06:15:02;103160.25;;;6.47;100.00
17855;BME280;9053;53.358;6.382;2023-02-28T06:17:32;103158.03;;;6.41;100.00
17855;BME280;9053;53.358;6.382;2023-02-28T06:20:03;103163.00;;;6.38;100.00
17855;BME280;9053;53.358;6.382;2023-02-28T06:22:33;103165.06;;;6.32;100.00
17855;BME280;9053;53.358;6.382;2023-02-28T06:25:06;103166.50;;;6.28;100.00
17855;BME280;9053;53.358;6.382;2023-02-28T06:27:37;103172.38;;;6.26;100.00
17855;BME280;9053;53.358;6.382;2023-02-28T06:30:08;103176.41;;;6.22;100.00
17855;BME280;9053;53.358;6.382;2023-02-28T06:32:38;103169.19;;;6.20;100.00
17855;BME280;9053;53.358;6.382;2023-02-28T06:35:08;103182.00;;;6.17;100.00
17855;BME280;9053;53.358;6.382;2023-02-28T06:37:38;103170.88;;;6.09;100.00
17855;BME280;9053;53.358;6.382;2023-02-28T06:40:12;103187.34;;;6.08;100.00
17855;BME280;9053;53.358;6.382;2023-02-28T06:42:42;103186.41;;;6.07;100.00
17855;BME280;9053;53.358;6.382;2023-02-28T06:45:12;103200.13;;;6.05;100.00
17855;BME280;9053;53.358;6.382;2023-02-28T06:47:42;103198.16;;;6.02;100.00
17855;BME280;9053;53.358;6.382;2023-02-28T06:50:12;103199.72;;;6.00;100.00
17855;BME280;9053;53.358;6.382;2023-02-28T06:52:46;103202.81;;;5.96;100.00
17855;BME280;9053;53.358;6.382;2023-02-28T06:55:23;103205.13;;;5.93;100.00
17855;BME280;9053;53.358;6.382;2023-02-28T06:57:55;103205.91;;;5.92;100.00
17855;BME280;9053;53.358;6.382;2023-02-28T07:00:25;103214.50;;;5.91;100.00
17855;BME280;9053;53.358;6.382;2023-02-28T07:02:55;103211.13;;;5.92;100.00
17855;BME280;9053;53.358;6.382;2023-02-28T07:05:25;103216.34;;;5.92;100.00
17855;BME280;9053;53.358;6.382;2023-02-28T07:07:55;103216.22;;;5.91;100.00
17855;BME280;9053;53.358;6.382;2023-02-28T07:10:28;103212.69;;;5.90;100.00
17855;BME280;9053;53.358;6.382;2023-02-28T07:12:58;103215.78;;;5.86;100.00
17855;BME280;9053;53.358;6.382;2023-02-28T07:15:31;103218.13;;;5.83;100.00
17855;BME280;9053;53.358;6.382;2023-02-28T07:18:05;103220.47;;;5.80;100.00
17855;BME280;9053;53.358;6.382;2023-02-28T07:20:35;103218.34;;;5.76;100.00
17855;BME280;9053;53.358;6.382;2023-02-28T07:23:05;103224.34;;;5.75;100.00
17855;BME280;9053;53.358;6.382;2023-02-28T07:25:37;103226.97;;;5.75;100.00
17855;BME280;9053;53.358;6.382;2023-02-28T07:28:07;103232.03;;;5.73;100.00
17855;BME280;9053;53.358;6.382;2023-02-28T07:30:37;103236.47;;;5.74;100.00
17855;BME280;9053;53.358;6.382;2023-02-28T07:33:07;103235.56;;;5.74;100.00
17855;BME280;9053;53.358;6.382;2023-02-28T07:35:36;103244.19;;;5.73;100.00
17855;BME280;9053;53.358;6.382;2023-02-28T07:38:07;103248.34;;;5.71;100.00
17855;BME280;9053;53.358;6.382;2023-02-28T07:40:39;103238.69;;;5.70;100.00
17855;BME280;9053;53.358;6.382;2023-02-28T07:43:09;103251.59;;;5.68;100.00
17855;BME280;9053;53.358;6.382;2023-02-28T07:45:39;103252.22;;;5.66;100.00
17855;BME280;9053;53.358;6.382;2023-02-28T07:48:09;103253.00;;;5.64;100.00
17855;BME280;9053;53.358;6.382;2023-02-28T07:50:39;103248.28;;;5.60;100.00
17855;BME280;9053;53.358;6.382;2023-02-28T07:53:09;103244.75;;;5.60;100.00
17855;BME280;9053;53.358;6.382;2023-02-28T07:55:41;103252.59;;;5.60;100.00
17855;BME280;9053;53.358;6.382;2023-02-28T07:58:11;103251.66;;;5.59;100.00
17855;BME280;9053;53.358;6.382;2023-02-28T08:00:41;103252.69;;;5.61;100.00
17855;BME280;9053;53.358;6.382;2023-02-28T08:03:12;103248.53;;;5.63;100.00
17855;BME280;9053;53.358;6.382;2023-02-28T08:05:42;103249.59;;;5.66;100.00
17855;BME280;9053;53.358;6.382;2023-02-28T08:08:11;103247.16;;;5.67;100.00
17855;BME280;9053;53.358;6.382;2023-02-28T08:10:44;103254.19;;;5.68;100.00
17855;BME280;9053;53.358;6.382;2023-02-28T08:13:14;103256.16;;;5.71;100.00
17855;BME280;9053;53.358;6.382;2023-02-28T08:15:44;103258.00;;;5.72;100.00
17855;BME280;9053;53.358;6.382;2023-02-28T08:18:14;103259.84;;;5.73;100.00
17855;BME280;9053;53.358;6.382;2023-02-28T08:20:44;103258.31;;;5.75;100.00
17855;BME280;9053;53.358;6.382;2023-02-28T08:23:14;103255.69;;;5.75;100.00
17855;BME280;9053;53.358;6.382;2023-02-28T08:25:53;103246.91;;;5.74;100.00
17855;BME280;9053;53.358;6.382;2023-02-28T08:28:23;103253.06;;;5.75;100.00
17855;BME280;9053;53.358;6.382;2023-02-28T08:30:53;103256.44;;;5.74;100.00
17855;BME280;9053;53.358;6.382;2023-02-28T08:33:25;103265.34;;;5.76;100.00
17855;BME280;9053;53.358;6.382;2023-02-28T08:35:55;103269.13;;;5.79;100.00
17855;BME280;9053;53.358;6.382;2023-02-28T08:38:26;103269.44;;;5.82;100.00
17855;BME280;9053;53.358;6.382;2023-02-28T08:41:04;103275.06;;;5.87;100.00
17855;BME280;9053;53.358;6.382;2023-02-28T08:43:36;103273.53;;;5.89;100.00
17855;BME280;9053;53.358;6.382;2023-02-28T08:46:07;103275.50;;;5.92;100.00
17855;BME280;9053;53.358;6.382;2023-02-28T08:48:37;103268.91;;;5.95;100.00
17855;BME280;9053;53.358;6.382;2023-02-28T08:51:08;103270.09;;;5.99;100.00
17855;BME280;9053;53.358;6.382;2023-02-28T08:53:39;103271.31;;;6.02;100.00
17855;BME280;9053;53.358;6.382;2023-02-28T08:56:13;103265.44;;;6.05;100.00
17855;BME280;9053;53.358;6.382;2023-02-28T08:58:44;103256.81;;;6.06;100.00
17855;BME280;9053;53.358;6.382;2023-02-28T09:01:16;103259.56;;;6.07;100.00
17855;BME280;9053;53.358;6.382;2023-02-28T09:03:48;103271.84;;;6.09;100.00
17855;BME280;9053;53.358;6.382;2023-02-28T09:06:20;103264.81;;;6.07;100.00
17855;BME280;9053;53.358;6.382;2023-02-28T09:08:51;103256.97;;;6.07;100.00
17855;BME280;9053;53.358;6.382;2023-02-28T09:11:24;103268.44;;;6.10;100.00
17855;BME280;9053;53.358;6.382;2023-02-28T09:13:54;103263.38;;;6.11;100.00
17855;BME280;9053;53.358;6.382;2023-02-28T09:16:26;103267.16;;;6.15;100.00
17855;BME280;9053;53.358;6.382;2023-02-28T09:18:56;103253.47;;;6.17;100.00
17855;BME280;9053;53.358;6.382;2023-02-28T09:21:26;103259.91;;;6.21;100.00
17855;BME280;9053;53.358;6.382;2023-02-28T09:23:57;103262.13;;;6.26;100.00
17855;BME280;9053;53.358;6.382;2023-02-28T09:26:29;103259.03;;;6.31;100.00
17855;BME280;9053;53.358;6.382;2023-02-28T09:29:13;103266.50;;;6.36;100.00
17855;BME280;9053;53.358;6.382;2023-02-28T09:31:44;103270.59;;;6.43;100.00
17855;BME280;9053;53.358;6.382;2023-02-28T09:34:14;103272.19;;;6.51;100.00
17855;BME280;9053;53.358;6.382;2023-02-28T09:36:44;103269.44;;;6.60;100.00
17855;BME280;9053;53.358;6.382;2023-02-28T09:39:14;103268.47;;;6.68;100.00
17855;BME280;9053;53.358;6.382;2023-02-28T09:41:49;103272.66;;;6.76;100.00
17855;BME280;9053;53.358;6.382;2023-02-28T09:44:25;103272.69;;;6.86;100.00
17855;BME280;9053;53.358;6.382;2023-02-28T09:46:58;103275.16;;;6.95;100.00
17855;BME280;9053;53.358;6.382;2023-02-28T09:49:36;103267.97;;;7.03;100.00
17855;BME280;9053;53.358;6.382;2023-02-28T09:52:11;103264.47;;;7.12;100.00
17855;BME280;9053;53.358;6.382;2023-02-28T09:54:42;103275.50;;;7.19;100.00
17855;BME280;9053;53.358;6.382;2023-02-28T09:57:19;103273.28;;;7.23;100.00
17855;BME280;9053;53.358;6.382;2023-02-28T10:00:01;103276.91;;;7.25;100.00
17855;BME280;9053;53.358;6.382;2023-02-28T10:02:56;103272.47;;;7.34;100.00
17855;BME280;9053;53.358;6.382;2023-02-28T10:05:33;103268.69;;;7.41;100.00
17855;BME280;9053;53.358;6.382;2023-02-28T10:08:13;103279.53;;;7.46;100.00
17855;BME280;9053;53.358;6.382;2023-02-28T10:10:45;103279.03;;;7.50;100.00
17855;BME280;9053;53.358;6.382;2023-02-28T10:13:24;103266.56;;;7.57;100.00
17855;BME280;9053;53.358;6.382;2023-02-28T10:15:59;103266.31;;;7.65;100.00
17855;BME280;9053;53.358;6.382;2023-02-28T10:18:42;103276.53;;;7.72;100.00
17855;BME280;9053;53.358;6.382;2023-02-28T10:21:19;103270.88;;;7.77;100.00
17855;BME280;9053;53.358;6.382;2023-02-28T10:23:58;103269.56;;;7.83;100.00
17855;BME280;9053;53.358;6.382;2023-02-28T10:26:31;103277.81;;;7.87;100.00
17855;BME280;9053;53.358;6.382;2023-02-28T10:29:04;103271.09;;;7.91;100.00
17855;BME280;9053;53.358;6.382;2023-02-28T10:31:34;103267.72;;;7.92;100.00
17855;BME280;9053;53.358;6.382;2023-02-28T10:34:04;103280.41;;;7.97;100.00
17855;BME280;9053;53.358;6.382;2023-02-28T10:36:34;103279.75;;;8.00;100.00
17855;BME280;9053;53.358;6.382;2023-02-28T10:39:33;103280.00;;;8.03;100.00
17855;BME280;9053;53.358;6.382;2023-02-28T10:42:03;103278.28;;;8.03;100.00
17855;BME280;9053;53.358;6.382;2023-02-28T10:44:36;103274.09;;;8.06;100.00
17855;BME280;9053;53.358;6.382;2023-02-28T10:47:13;103267.28;;;8.08;100.00
17855;BME280;9053;53.358;6.382;2023-02-28T10:49:47;103262.69;;;8.05;100.00
17855;BME280;9053;53.358;6.382;2023-02-28T10:52:33;103267.94;;;8.05;100.00
17855;BME280;9053;53.358;6.382;2023-02-28T10:55:20;103268.72;;;8.04;100.00
17855;BME280;9053;53.358;6.382;2023-02-28T10:57:52;103264.50;;;8.06;100.00
17855;BME280;9053;53.358;6.382;2023-02-28T11:00:25;103262.03;;;8.08;100.00
17855;BME280;9053;53.358;6.382;2023-02-28T11:03:01;103258.88;;;8.12;100.00
17855;BME280;9053;53.358;6.382;2023-02-28T11:05:33;103265.94;;;8.13;100.00
17855;BME280;9053;53.358;6.382;2023-02-28T11:08:10;103260.94;;;8.16;100.00
17855;BME280;9053;53.358;6.382;2023-02-28T11:10:45;103252.41;;;8.18;100.00
17855;BME280;9053;53.358;6.382;2023-02-28T11:13:18;103262.13;;;8.19;100.00
17855;BME280;9053;53.358;6.382;2023-02-28T11:15:54;103252.81;;;8.23;100.00
17855;BME280;9053;53.358;6.382;2023-02-28T11:18:28;103246.13;;;8.27;100.00
17855;BME280;9053;53.358;6.382;2023-02-28T11:21:00;103248.19;;;8.31;100.00
17855;BME280;9053;53.358;6.382;2023-02-28T11:23:32;103244.22;;;8.36;100.00
17855;BME280;9053;53.358;6.382;2023-02-28T11:26:04;103243.97;;;8.43;100.00
17855;BME280;9053;53.358;6.382;2023-02-28T11:28:37;103247.63;;;8.45;100.00
17855;BME280;9053;53.358;6.382;2023-02-28T11:31:20;103244.44;;;8.49;99.59
17855;BME280;9053;53.358;6.382;2023-02-28T11:33:51;103245.63;;;8.53;99.40
17855;BME280;9053;53.358;6.382;2023-02-28T11:36:24;103244.16;;;8.56;99.12
17855;BME280;9053;53.358;6.382;2023-02-28T11:38:57;103244.28;;;8.58;98.89
17855;BME280;9053;53.358;6.382;2023-02-28T11:41:45;103243.63;;;8.60;98.56
17855;BME280;9053;53.358;6.382;2023-02-28T11:44:29;103247.16;;;8.61;98.21
17855;BME280;9053;53.358;6.382;2023-02-28T11:47:09;103248.34;;;8.64;97.92
17855;BME280;9053;53.358;6.382;2023-02-28T11:49:49;103244.91;;;8.65;97.54
17855;BME280;9053;53.358;6.382;2023-02-28T11:52:34;103244.91;;;8.65;97.22
17855;BME280;9053;53.358;6.382;2023-02-28T11:55:16;103243.31;;;8.68;96.76
17855;BME280;9053;53.358;6.382;2023-02-28T11:58:07;103240.25;;;8.73;96.43
17855;BME280;9053;53.358;6.382;2023-02-28T12:01:03;103240.63;;;8.78;95.88
17855;BME280;9053;53.358;6.382;2023-02-28T12:03:44;103237.19;;;8.79;95.44
17855;BME280;9053;53.358;6.382;2023-02-28T12:06:23;103234.81;;;8.82;95.12
17855;BME280;9053;53.358;6.382;2023-02-28T12:09:04;103239.53;;;8.86;94.73
17855;BME280;9053;53.358;6.382;2023-02-28T12:11:43;103238.19;;;8.91;94.38
17855;BME280;9053;53.358;6.382;2023-02-28T12:14:26;103229.63;;;8.94;94.00
17855;BME280;9053;53.358;6.382;2023-02-28T12:17:07;103229.09;;;8.98;93.70
17855;BME280;9053;53.358;6.382;2023-02-28T12:19:50;103221.22;;;8.98;93.29
17855;BME280;9053;53.358;6.382;2023-02-28T12:22:29;103225.97;;;8.92;92.88
17855;BME280;9053;53.358;6.382;2023-02-28T12:27:59;103220.09;;;8.72;91.83
17855;BME280;9053;53.358;6.382;2023-02-28T12:30:31;103223.69;;;8.62;91.41
17855;BME280;9053;53.358;6.382;2023-02-28T12:33:05;103223.44;;;8.59;90.97
17855;BME280;9053;53.358;6.382;2023-02-28T12:35:44;103211.22;;;8.60;90.54
17855;BME280;9053;53.358;6.382;2023-02-28T12:38:19;103216.72;;;8.63;90.26
17855;BME280;9053;53.358;6.382;2023-02-28T12:40:53;103212.75;;;8.68;90.02
17855;BME280;9053;53.358;6.382;2023-02-28T12:43:28;103212.53;;;8.77;89.80
17855;BME280;9053;53.358;6.382;2023-02-28T12:46:03;103209.22;;;8.90;89.72
17855;BME280;9053;53.358;6.382;2023-02-28T12:48:40;103204.56;;;8.97;89.59
17855;BME280;9053;53.358;6.382;2023-02-28T12:51:16;103204.88;;;8.90;89.37
17855;BME280;9053;53.358;6.382;2023-02-28T12:53:54;103206.09;;;8.83;89.14
17855;BME280;9053;53.358;6.382;2023-02-28T12:56:36;103192.81;;;8.82;88.72
17855;BME280;9053;53.358;6.382;2023-02-28T12:59:14;103194.81;;;8.84;88.44
17855;BME280;9053;53.358;6.382;2023-02-28T13:05:07;103184.34;;;8.96;88.06
17855;BME280;9053;53.358;6.382;2023-02-28T13:11:00;103172.56;;;8.91;87.40
17855;BME280;9053;53.358;6.382;2023-02-28T13:13:39;103171.28;;;8.86;87.15
17855;BME280;9053;53.358;6.382;2023-02-28T13:16:14;103165.59;;;8.80;86.83
17855;BME280;9053;53.358;6.382;2023-02-28T13:18:46;103167.16;;;8.78;86.61
17855;BME280;9053;53.358;6.382;2023-02-28T13:21:23;103169.66;;;8.76;86.38
17855;BME280;9053;53.358;6.382;2023-02-28T13:24:01;103171.38;;;8.76;86.14
17855;BME280;9053;53.358;6.382;2023-02-28T13:29:59;103168.22;;;8.80;85.60
17855;BME280;9053;53.358;6.382;2023-02-28T13:32:34;103172.09;;;8.85;85.50
17855;BME280;9053;53.358;6.382;2023-02-28T13:35:36;103159.34;;;8.90;85.35
17855;BME280;9053;53.358;6.382;2023-02-28T13:41:54;103160.25;;;8.90;84.76
17855;BME280;9053;53.358;6.382;2023-02-28T13:44:23;103163.66;;;8.89;84.63
17855;BME280;9053;53.358;6.382;2023-02-28T13:47:24;103152.91;;;8.86;84.35
17855;BME280;9053;53.358;6.382;2023-02-28T13:50:15;103154.50;;;8.84;84.13
17855;BME280;9053;53.358;6.382;2023-02-28T13:55:46;103149.84;;;8.92;83.85
17855;BME280;9053;53.358;6.382;2023-02-28T13:58:35;103149.16;;;8.94;83.67
17855;BME280;9053;53.358;6.382;2023-02-28T14:01:22;103159.13;;;8.98;83.57
17855;BME280;9053;53.358;6.382;2023-02-28T14:07:26;103158.22;;;8.98;83.18